Time;durP1;ratioP1;P1;durP2;ratioP2;P2;SDS_P1;SDS_P2;PMS_P1;PMS_P2;Temp;Humidity;BMP_temperature;BMP_pressure;BME280_temperature;BME280_humidity;BME280_pressure;Samples;Min_cycle;Max_cycle;Signal;HPM_P1;HPM_P2
2023/12/30 00:00:17;;;;;;;2.58;1.33;;;;;;;19.43;43.15;100579.41;5058892;28;20060;-67
2023/12/30 00:02:42;;;;;;;2.17;1.00;;;;;;;19.42;42.90;100572.47;5056350;28;20033;-67
2023/12/30 00:05:08;;;;;;;1.30;1.20;;;;;;;19.39;42.90;100572.84;5056681;28;20044;-67
2023/12/30 00:07:34;;;;;;;1.17;0.85;;;;;;;19.38;43.05;100575.66;5057640;28;20051;-67
2023/12/30 00:09:59;;;;;;;2.20;1.08;;;;;;;19.37;43.02;100574.00;5057978;28;20036;-67
2023/12/30 00:12:25;;;;;;;2.72;1.00;;;;;;;19.35;43.09;100568.91;5057898;28;20327;-67
2023/12/30 00:14:50;;;;;;;2.13;1.02;;;;;;;19.34;42.96;100569.91;5058206;28;20472;-67
2023/12/30 00:17:16;;;;;;;1.08;0.80;;;;;;;19.32;43.13;100580.66;5058418;28;20057;-67
2023/12/30 00:19:44;;;;;;;1.65;0.90;;;;;;;19.31;43.23;100563.19;5073068;28;20041;-67
2023/12/30 00:22:11;;;;;;;1.77;0.93;;;;;;;19.30;43.04;100572.09;5074319;28;20047;-67
2023/12/30 00:24:36;;;;;;;2.42;1.10;;;;;;;19.18;43.16;100552.44;5056348;28;20112;-67
2023/12/30 00:27:02;;;;;;;1.25;0.80;;;;;;;19.16;43.29;100551.81;5058216;28;20037;-67
2023/12/30 00:29:27;;;;;;;1.67;1.10;;;;;;;19.29;43.11;100570.47;5055602;28;20043;-67
2023/12/30 00:31:53;;;;;;;1.52;1.05;;;;;;;19.25;43.12;100581.59;5060055;28;20044;-67
2023/12/30 00:34:18;;;;;;;1.95;1.25;;;;;;;19.15;43.17;100565.19;5060146;28;20047;-67
2023/12/30 00:36:44;;;;;;;2.35;1.00;;;;;;;19.22;43.22;100581.94;5058978;28;20036;-67
2023/12/30 00:39:10;;;;;;;1.48;0.93;;;;;;;19.18;43.17;100589.38;5059082;28;20059;-67
2023/12/30 00:41:36;;;;;;;2.28;1.13;;;;;;;19.19;43.25;100591.03;5055652;28;20045;-67
2023/12/30 00:44:02;;;;;;;1.55;0.73;;;;;;;19.17;43.29;100597.50;5061732;28;20598;-67
2023/12/30 00:46:27;;;;;;;3.05;0.80;;;;;;;19.12;43.47;100586.66;5060237;28;20048;-67
2023/12/30 00:48:54;;;;;;;2.53;0.68;;;;;;;19.19;43.14;100604.22;5055883;28;20037;-67
2023/12/30 00:51:20;;;;;;;2.55;1.10;;;;;;;19.15;43.43;100604.78;5055497;28;21642;-67
2023/12/30 00:53:46;;;;;;;2.75;1.20;;;;;;;19.16;43.24;100611.69;5057498;28;20049;-67
2023/12/30 00:56:11;;;;;;;1.38;0.82;;;;;;;19.15;43.36;100600.31;5059003;28;20041;-68
2023/12/30 00:58:37;;;;;;;1.60;0.95;;;;;;;19.14;43.20;100609.22;5058354;28;20068;-67
2023/12/30 01:01:02;;;;;;;1.00;0.82;;;;;;;18.98;43.50;100583.81;5060282;28;20064;-67
2023/12/30 01:03:28;;;;;;;2.78;0.90;;;;;;;19.11;43.39;100603.50;5052958;28;20047;-67
2023/12/30 01:05:53;;;;;;;1.30;0.82;;;;;;;19.08;43.41;100607.31;5058807;28;20045;-67
2023/12/30 01:08:19;;;;;;;2.08;0.95;;;;;;;19.06;43.37;100611.97;5056686;28;20044;-67
2023/12/30 01:10:45;;;;;;;2.20;0.77;;;;;;;19.06;43.39;100611.97;5058167;28;20044;-67
2023/12/30 01:13:10;;;;;;;1.58;0.90;;;;;;;18.97;43.31;100594.56;5059605;28;20032;-67
2023/12/30 01:15:36;;;;;;;1.67;0.82;;;;;;;19.06;43.41;100613.78;5061509;28;20032;-67
2023/12/30 01:18:02;;;;;;;1.85;1.00;;;;;;;18.96;43.46;100598.19;5058837;28;20028;-66
2023/12/30 01:20:28;;;;;;;1.48;1.17;;;;;;;19.01;43.49;100616.94;5060007;28;20068;-67
2023/12/30 01:22:53;;;;;;;2.05;1.10;;;;;;;19.01;43.51;100617.75;5060031;28;20117;-67
2023/12/30 01:25:19;;;;;;;1.95;1.23;;;;;;;19.04;43.37;100626.34;5058349;28;20573;-68
2023/12/30 01:27:45;;;;;;;1.15;1.05;;;;;;;19.02;43.33;100622.03;5057433;28;20040;-66
2023/12/30 01:30:10;;;;;;;1.77;0.80;;;;;;;19.02;43.37;100629.13;5057100;28;20101;-67
2023/12/30 01:32:36;;;;;;;2.53;1.20;;;;;;;18.99;43.42;100614.47;5059163;28;20047;-67
2023/12/30 01:35:03;;;;;;;3.03;0.85;;;;;;;19.02;43.47;100621.22;5060746;28;20536;-67
2023/12/30 01:37:29;;;;;;;0.80;0.70;;;;;;;18.99;43.48;100626.84;5058631;28;20041;-67
2023/12/30 01:39:55;;;;;;;2.13;0.70;;;;;;;18.98;43.38;100630.50;5043749;28;20043;-66
2023/12/30 01:42:21;;;;;;;1.00;0.80;;;;;;;18.99;43.47;100637.41;5062077;28;20036;-67
2023/12/30 01:44:46;;;;;;;1.50;1.00;;;;;;;18.97;43.40;100634.13;5061401;28;20536;-68
2023/12/30 01:47:12;;;;;;;1.55;1.08;;;;;;;18.97;43.35;100634.97;5060468;28;20043;-67
2023/12/30 01:49:38;;;;;;;1.25;0.60;;;;;;;18.89;43.47;100618.38;5063735;28;20047;-66
2023/12/30 01:52:04;;;;;;;0.98;0.70;;;;;;;18.94;43.39;100635.31;5057138;28;20080;-67
2023/12/30 01:54:30;;;;;;;1.17;0.65;;;;;;;18.78;43.43;100610.88;5061948;28;20036;-67
2023/12/30 01:56:57;;;;;;;1.67;0.68;;;;;;;18.93;43.47;100646.88;5060890;28;20052;-66
2023/12/30 01:59:23;;;;;;;1.98;0.90;;;;;;;18.91;43.64;100630.41;5078716;28;20032;-67
2023/12/30 02:01:49;;;;;;;0.95;0.57;;;;;;;18.91;43.57;100638.31;5060572;28;20133;-67
2023/12/30 02:04:14;;;;;;;1.15;0.40;;;;;;;18.87;43.48;100629.13;5063120;28;20052;-67
2023/12/30 02:06:40;;;;;;;1.75;0.85;;;;;;;18.96;43.42;100650.97;5058534;28;20028;-67
2023/12/30 02:09:06;;;;;;;1.55;1.27;;;;;;;18.99;43.36;100658.53;5061859;28;20758;-67
2023/12/30 02:11:32;;;;;;;2.80;1.35;;;;;;;19.01;43.44;100652.06;5060262;28;20353;-67
2023/12/30 02:13:57;;;;;;;3.30;3.00;;;;;;;19.02;43.50;100664.25;5063520;28;20119;-67
2023/12/30 02:16:23;;;;;;;2.58;0.95;;;;;;;19.02;43.49;100658.97;5060589;28;20071;-67
2023/12/30 02:18:48;;;;;;;1.40;0.63;;;;;;;19.04;43.31;100664.13;5060312;28;20101;-67
2023/12/30 02:21:14;;;;;;;2.53;0.88;;;;;;;19.05;43.41;100664.94;5060887;28;20044;-67
2023/12/30 02:23:39;;;;;;;2.80;1.10;;;;;;;19.05;43.47;100672.84;5060449;28;20044;-67
2023/12/30 02:26:07;;;;;;;1.23;0.65;;;;;;;19.06;43.35;100669.22;5058641;28;20036;-67
2023/12/30 02:28:33;;;;;;;3.55;1.17;;;;;;;19.05;43.46;100673.66;5058412;28;20047;-67
2023/12/30 02:30:58;;;;;;;3.83;1.35;;;;;;;19.04;43.34;100666.75;5058834;28;20044;-66
2023/12/30 02:33:24;;;;;;;4.18;1.13;;;;;;;19.06;43.24;100669.22;5057131;28;20044;-67
2023/12/30 02:35:50;;;;;;;2.30;0.90;;;;;;;19.02;43.42;100668.72;5055827;28;20039;-67
2023/12/30 02:38:16;;;;;;;1.77;0.82;;;;;;;19.02;43.39;100668.72;5060977;28;20142;-67
2023/12/30 02:40:42;;;;;;;0.90;0.90;;;;;;;18.98;43.28;100672.72;5044523;28;20489;-67
2023/12/30 02:43:07;;;;;;;1.13;0.77;;;;;;;19.03;43.19;100673.03;5059312;28;20047;-67
2023/12/30 02:45:33;;;;;;;1.55;0.85;;;;;;;19.01;43.23;100682.91;5059618;28;20426;-66
2023/12/30 02:47:58;;;;;;;1.88;0.70;;;;;;;19.02;43.38;100681.91;5060356;28;20053;-67
2023/12/30 02:50:24;;;;;;;0.75;0.43;;;;;;;19.00;43.26;100686.56;5058298;28;20045;-67
2023/12/30 02:52:50;;;;;;;1.88;0.90;;;;;;;18.99;43.34;100693.66;5062278;28;20147;-67
2023/12/30 02:55:16;;;;;;;1.25;0.77;;;;;;;18.97;43.40;100690.38;5060111;28;20036;-67
2023/12/30 02:57:42;;;;;;;3.50;0.88;;;;;;;18.96;43.30;100703.75;5061483;28;20037;-67
2023/12/30 03:00:08;;;;;;;2.83;0.90;;;;;;;18.97;43.34;100692.19;5056367;28;20056;-67
2023/12/30 03:02:33;;;;;;;1.85;0.82;;;;;;;18.95;43.34;100702.09;5061606;28;20041;-67
2023/12/30 03:04:59;;;;;;;1.60;1.00;;;;;;;18.94;43.31;100706.56;5059783;28;20048;-67
2023/12/30 03:07:24;;;;;;;2.38;0.85;;;;;;;18.96;43.16;100707.19;5060801;28;20391;-67
2023/12/30 03:09:51;;;;;;;1.85;0.88;;;;;;;18.93;43.36;100704.09;5060236;28;20036;-67
2023/12/30 03:12:17;;;;;;;1.67;0.77;;;;;;;18.92;43.32;100707.75;5057962;28;20443;-66
2023/12/30 03:14:43;;;;;;;2.65;1.08;;;;;;;18.90;43.37;100704.47;5061065;28;20048;-67
2023/12/30 03:17:09;;;;;;;1.92;1.20;;;;;;;18.90;43.30;100710.56;5057490;28;20055;-67
2023/12/30 03:19:36;;;;;;;1.58;0.50;;;;;;;18.90;43.33;100705.28;5060412;28;20067;-67
2023/12/30 03:22:02;;;;;;;0.95;0.68;;;;;;;18.89;43.30;100719.47;5060034;28;20160;-67
2023/12/30 03:24:28;;;;;;;1.38;0.90;;;;;;;18.72;43.40;100694.19;5062310;28;20628;-66
2023/12/30 03:26:53;;;;;;;1.52;0.52;;;;;;;18.88;43.35;100725.75;5060982;28;20051;-67
2023/12/30 03:29:20;;;;;;;1.05;0.80;;;;;;;18.86;43.20;100716.38;5061718;28;20032;-67
2023/12/30 03:31:45;;;;;;;1.45;0.57;;;;;;;18.88;43.17;100727.56;5061594;28;20044;-67
2023/12/30 03:34:12;;;;;;;2.00;1.33;;;;;;;18.89;43.26;100731.84;5061675;28;20465;-67
2023/12/30 03:36:37;;;;;;;1.90;0.93;;;;;;;18.89;43.10;100723.94;5058235;28;20044;-68
2023/12/30 03:39:05;;;;;;;1.75;0.80;;;;;;;18.82;43.27;100731.69;5060838;28;20040;-67
2023/12/30 03:41:30;;;;;;;2.40;1.15;;;;;;;18.86;43.30;100727.75;5059158;28;20058;-67
2023/12/30 03:43:56;;;;;;;1.33;0.70;;;;;;;18.85;43.04;100723.47;5056761;28;20048;-67
2023/12/30 03:46:23;;;;;;;1.83;0.80;;;;;;;18.84;43.14;100731.53;5060338;28;20028;-67
2023/12/30 03:48:48;;;;;;;0.85;0.75;;;;;;;18.84;43.15;100732.34;5059952;28;20453;-67
2023/12/30 03:51:14;;;;;;;2.50;0.90;;;;;;;18.83;43.26;100729.88;5058786;28;20547;-67
2023/12/30 03:53:40;;;;;;;2.65;1.00;;;;;;;18.84;43.21;100736.81;5060532;28;20457;-67
2023/12/30 03:56:06;;;;;;;2.58;0.80;;;;;;;18.81;43.23;100735.34;5060542;28;20040;-65
2023/12/30 03:58:32;;;;;;;1.40;0.90;;;;;;;18.82;43.33;100742.25;5058801;28;20033;-67
2023/12/30 04:00:57;;;;;;;0.50;0.50;;;;;;;18.82;43.22;100744.91;5061366;28;20045;-67
2023/12/30 04:03:23;;;;;;;0.93;0.65;;;;;;;18.82;43.46;100744.91;5054737;28;20044;-67
2023/12/30 04:05:49;;;;;;;1.15;0.52;;;;;;;18.81;43.23;100742.44;5061281;28;20045;-67
2023/12/30 04:08:14;;;;;;;1.35;0.60;;;;;;;18.79;43.40;100753.16;5061005;28;20040;-67
2023/12/30 04:10:40;;;;;;;2.30;0.73;;;;;;;18.80;43.33;100744.25;5060583;28;20040;-67
2023/12/30 04:13:06;;;;;;;2.05;1.00;;;;;;;18.80;43.32;100746.06;5045292;28;20048;-67
2023/12/30 04:15:31;;;;;;;1.35;0.80;;;;;;;18.79;43.27;100744.44;5059774;28;20032;-67
2023/12/30 04:17:57;;;;;;;3.53;0.80;;;;;;;18.79;43.39;100754.97;5057666;28;20044;-67
2023/12/30 04:20:22;;;;;;;1.67;0.85;;;;;;;18.78;43.36;100754.16;5058778;28;20036;-67
2023/12/30 04:22:48;;;;;;;2.60;0.93;;;;;;;18.79;43.12;100752.34;5059795;28;20036;-67
2023/12/30 04:25:14;;;;;;;1.20;1.05;;;;;;;18.80;43.26;100751.34;5074866;28;20055;-67
2023/12/30 04:27:39;;;;;;;1.50;1.00;;;;;;;18.84;43.10;100763.19;5059597;28;20455;-67
2023/12/30 04:30:05;;;;;;;0.88;0.68;;;;;;;18.84;43.01;100744.72;5055161;28;20365;-67
2023/12/30 04:32:31;;;;;;;1.40;0.73;;;;;;;19.00;42.95;100755.97;5060407;28;20070;-66
2023/12/30 04:34:57;;;;;;;1.70;0.80;;;;;;;19.05;42.81;100757.31;5058233;28;20048;-67
2023/12/30 04:37:23;;;;;;;1.95;0.85;;;;;;;19.06;42.95;100759.75;5059904;28;20494;-67
2023/12/30 04:39:48;;;;;;;1.02;0.52;;;;;;;19.07;42.85;100765.84;5058538;28;20045;-67
2023/12/30 04:42:15;;;;;;;1.65;0.93;;;;;;;19.09;42.85;100769.13;5060250;28;20044;-67
2023/12/30 04:44:41;;;;;;;2.42;0.50;;;;;;;19.08;42.90;100778.88;5058211;28;20542;-67
2023/12/30 04:47:07;;;;;;;0.82;0.47;;;;;;;19.04;43.06;100774.94;5058162;28;20130;-67
2023/12/30 04:49:32;;;;;;;0.55;0.50;;;;;;;18.89;43.00;100763.50;5060011;28;20613;-67
2023/12/30 04:51:58;;;;;;;1.05;0.80;;;;;;;19.01;43.08;100785.84;5058824;28;20044;-67
2023/12/30 04:54:30;;;;;;;2.60;0.88;;;;;;;18.97;43.17;100785.38;5062013;28;20543;-67
2023/12/30 04:56:55;;;;;;;1.88;1.08;;;;;;;18.98;43.03;100792.28;5058067;28;20129;-67
2023/12/30 04:59:21;;;;;;;1.17;0.77;;;;;;;18.95;43.22;100789.19;5059128;28;20710;-66
2023/12/30 05:01:47;;;;;;;2.55;1.00;;;;;;;18.94;43.25;100783.09;5058003;28;20648;-67
2023/12/30 05:04:12;;;;;;;1.75;0.73;;;;;;;18.94;43.14;100777.81;5057087;28;20492;-67
2023/12/30 05:06:38;;;;;;;1.63;0.75;;;;;;;18.87;43.15;100773.41;5041386;28;20109;-67
2023/12/30 05:09:05;;;;;;;1.00;0.68;;;;;;;18.94;43.11;100785.72;5060091;28;20048;-67
2023/12/30 05:11:30;;;;;;;0.88;0.70;;;;;;;18.95;42.94;100778.63;5056240;28;20044;-67
2023/12/30 05:13:56;;;;;;;1.95;0.93;;;;;;;18.91;43.21;100788.72;5059302;28;20051;-67
2023/12/30 05:16:21;;;;;;;1.35;0.73;;;;;;;18.92;43.03;100784.25;5061506;28;20044;-67
2023/12/30 05:18:47;;;;;;;1.65;0.90;;;;;;;18.87;43.11;100779.50;5060403;28;20037;-67
2023/12/30 05:21:14;;;;;;;1.48;0.95;;;;;;;18.87;43.07;100792.72;5063472;28;20044;-66
2023/12/30 05:23:40;;;;;;;1.35;0.57;;;;;;;18.90;43.21;100802.91;5064495;28;20124;-67
2023/12/30 05:26:06;;;;;;;1.27;0.57;;;;;;;18.90;43.11;100791.53;5062417;28;20040;-67
2023/12/30 05:28:31;;;;;;;1.52;0.80;;;;;;;18.81;43.09;100796.03;5064040;28;20102;-67
2023/12/30 05:30:57;;;;;;;1.20;0.68;;;;;;;18.88;43.23;100814.63;5061484;28;20081;-67
2023/12/30 05:33:23;;;;;;;2.17;0.75;;;;;;;18.87;43.27;100807.72;5061713;28;20504;-67
2023/12/30 05:35:49;;;;;;;1.73;0.85;;;;;;;18.84;43.25;100821.22;5060212;28;20052;-67
2023/12/30 05:38:15;;;;;;;1.70;0.65;;;;;;;18.84;43.18;100818.59;5062331;28;20041;-67
2023/12/30 05:40:40;;;;;;;1.55;0.63;;;;;;;18.83;43.34;100822.22;5058272;28;20393;-67
2023/12/30 05:43:06;;;;;;;1.80;0.80;;;;;;;18.83;43.25;100817.78;5077369;28;20040;-67
2023/12/30 05:45:32;;;;;;;2.03;1.00;;;;;;;18.82;43.17;100824.03;5058502;28;20040;-67
2023/12/30 05:47:57;;;;;;;1.58;1.02;;;;;;;18.76;43.21;100819.47;5061711;28;20045;-67
2023/12/30 05:50:23;;;;;;;1.67;0.90;;;;;;;18.81;43.29;100825.03;5061254;28;20041;-67
2023/12/30 05:52:48;;;;;;;2.67;1.10;;;;;;;18.78;43.26;100825.38;5063254;28;20052;-67
2023/12/30 05:55:14;;;;;;;1.52;0.82;;;;;;;18.80;43.28;100822.56;5063222;28;20122;-67
2023/12/30 05:57:39;;;;;;;1.00;0.65;;;;;;;18.79;43.31;100826.22;5061994;28;20033;-67
2023/12/30 06:00:07;;;;;;;2.33;1.00;;;;;;;18.75;43.30;100827.56;5062230;28;20060;-67
2023/12/30 06:02:38;;;;;;;1.20;0.85;;;;;;;18.79;43.10;100842.84;5064604;28;20105;-65
2023/12/30 06:05:03;;;;;;;1.45;0.88;;;;;;;18.80;43.33;100841.03;5060443;28;20044;-67
2023/12/30 06:07:29;;;;;;;2.13;0.85;;;;;;;18.63;43.25;100814.75;5064500;28;21107;-67
2023/12/30 06:09:55;;;;;;;3.28;1.60;;;;;;;18.75;43.25;100836.28;5061361;28;20082;-67
2023/12/30 06:12:20;;;;;;;1.30;0.90;;;;;;;18.78;43.17;100840.41;5063941;28;20040;-67
2023/12/30 06:14:46;;;;;;;1.58;0.70;;;;;;;18.74;43.39;100839.94;5060139;28;21090;-67
2023/12/30 06:17:11;;;;;;;1.40;0.77;;;;;;;18.75;43.15;100841.56;5059236;28;20028;-67
2023/12/30 06:19:37;;;;;;;1.10;0.68;;;;;;;18.77;43.16;100841.41;5060852;28;20051;-67
2023/12/30 06:22:03;;;;;;;2.35;0.95;;;;;;;18.71;43.29;100841.09;5063195;28;20044;-67
2023/12/30 06:24:28;;;;;;;1.83;0.93;;;;;;;18.76;43.37;100859.03;5060412;28;20040;-67
2023/12/30 06:26:54;;;;;;;1.63;0.80;;;;;;;18.75;43.37;100853.94;5060640;28;20098;-67
2023/12/30 06:29:19;;;;;;;1.92;0.88;;;;;;;18.75;43.30;100854.75;5059202;28;20041;-67
2023/12/30 06:31:45;;;;;;;1.35;0.65;;;;;;;18.75;43.32;100859.22;5063675;28;20062;-67
2023/12/30 06:34:11;;;;;;;3.47;0.70;;;;;;;18.72;43.27;100855.09;5061621;28;20047;-67
2023/12/30 06:36:37;;;;;;;0.90;0.52;;;;;;;18.75;43.36;100859.22;5062195;28;20490;-66
2023/12/30 06:39:04;;;;;;;2.28;1.08;;;;;;;18.74;43.46;100852.28;5061256;28;20067;-67
2023/12/30 06:41:30;;;;;;;2.15;0.85;;;;;;;18.75;43.21;100860.03;5063116;28;20033;-67
2023/12/30 06:43:56;;;;;;;1.45;0.40;;;;;;;18.79;43.13;100856.06;5061862;28;20059;-67
2023/12/30 06:46:21;;;;;;;3.42;0.93;;;;;;;18.86;43.17;100851.75;5059725;28;20413;-67
2023/12/30 06:48:47;;;;;;;2.50;0.98;;;;;;;18.92;43.10;100852.88;5061870;28;20041;-67
2023/12/30 06:51:13;;;;;;;1.55;0.73;;;;;;;18.94;42.99;100854.34;5060198;28;20403;-67
2023/12/30 06:53:39;;;;;;;1.08;0.63;;;;;;;18.88;42.90;100841.84;5061105;28;20048;-67
2023/12/30 06:56:07;;;;;;;1.23;0.75;;;;;;;18.97;43.01;100861.06;5060989;28;20036;-67
2023/12/30 06:58:32;;;;;;;1.75;1.05;;;;;;;18.99;42.95;100861.72;5059226;28;20044;-67
2023/12/30 07:00:58;;;;;;;2.13;0.98;;;;;;;18.90;42.99;100849.59;5060736;28;20804;-67
2023/12/30 07:03:23;;;;;;;1.38;0.63;;;;;;;18.97;43.14;100874.28;5058845;28;20041;-67
2023/12/30 07:05:49;;;;;;;2.65;1.17;;;;;;;18.97;43.16;100877.72;5061384;28;20036;-67
2023/12/30 07:08:14;;;;;;;1.48;0.43;;;;;;;18.95;43.16;100874.44;5057393;28;20033;-67
2023/12/30 07:10:40;;;;;;;1.73;0.82;;;;;;;18.96;43.11;100878.72;5058296;28;20487;-67
2023/12/30 07:13:06;;;;;;;1.98;0.70;;;;;;;18.85;43.20;100865.94;5057107;28;20067;-67
2023/12/30 07:15:32;;;;;;;0.93;0.65;;;;;;;18.83;42.97;100867.06;5059915;28;20069;-67
2023/12/30 07:17:57;;;;;;;1.02;0.50;;;;;;;18.94;43.07;100893.09;5058809;28;20036;-67
2023/12/30 07:20:23;;;;;;;1.55;0.75;;;;;;;18.93;43.10;100897.56;5063303;28;20044;-67
2023/12/30 07:22:49;;;;;;;0.85;0.75;;;;;;;18.92;43.29;100897.72;5063937;28;20127;-66
2023/12/30 07:25:14;;;;;;;1.35;0.98;;;;;;;18.88;43.28;100909.63;5057617;28;20098;-66
2023/12/30 07:27:40;;;;;;;2.33;1.13;;;;;;;18.67;42.81;100875.88;5063245;28;20040;-67
2023/12/30 07:30:06;;;;;;;1.80;0.80;;;;;;;18.90;43.19;100919.00;5059052;28;20498;-67
2023/12/30 07:32:32;;;;;;;0.82;0.52;;;;;;;18.91;43.29;100925.94;5048743;28;20136;-67
2023/12/30 07:34:58;;;;;;;1.75;1.10;;;;;;;18.88;43.22;100923.63;5055616;28;20053;-67
2023/12/30 07:37:24;;;;;;;2.95;1.08;;;;;;;18.90;43.11;100936.66;5060924;28;20032;-67
2023/12/30 07:39:49;;;;;;;0.70;0.65;;;;;;;18.92;43.11;100940.75;5061719;28;20361;-67
2023/12/30 07:42:16;;;;;;;1.67;0.88;;;;;;;18.99;43.11;100936.44;5064376;28;20043;-67
2023/12/30 07:44:41;;;;;;;1.67;0.80;;;;;;;19.16;42.82;100942.47;5059155;28;20071;-67
2023/12/30 07:47:07;;;;;;;3.42;1.15;;;;;;;19.22;42.70;100949.72;5062941;28;20531;-67
2023/12/30 07:49:33;;;;;;;2.28;0.77;;;;;;;19.25;42.67;100945.91;5053735;28;20043;-67
2023/12/30 07:52:00;;;;;;;1.33;0.60;;;;;;;19.33;42.61;100961.69;5058114;28;20036;-67
2023/12/30 07:54:26;;;;;;;3.45;1.15;;;;;;;19.35;42.52;100964.97;5065023;28;20040;-67
2023/12/30 07:56:52;;;;;;;1.90;0.60;;;;;;;19.36;42.59;100971.09;5058260;28;20048;-67
2023/12/30 07:59:17;;;;;;;1.67;0.85;;;;;;;19.35;42.53;100964.16;5062691;28;20045;-67
2023/12/30 08:01:43;;;;;;;1.98;1.20;;;;;;;19.36;42.60;100974.53;5059585;28;20049;-67
2023/12/30 08:04:09;;;;;;;1.48;0.60;;;;;;;19.40;42.61;100986.44;5062300;28;20048;-68
2023/12/30 08:06:35;;;;;;;1.88;0.77;;;;;;;19.38;42.68;100979.66;5059326;28;20041;-66
2023/12/30 08:09:00;;;;;;;1.15;0.70;;;;;;;19.36;42.74;100992.22;5063706;28;20436;-66
2023/12/30 08:11:26;;;;;;;1.60;0.93;;;;;;;19.33;42.75;100994.19;5059862;28;20051;-67
2023/12/30 08:13:51;;;;;;;1.90;0.70;;;;;;;19.33;42.78;100998.66;5062477;28;20637;-67
2023/12/30 08:16:18;;;;;;;1.40;0.63;;;;;;;19.19;42.92;100987.00;5061780;28;20515;-67
2023/12/30 08:18:44;;;;;;;2.05;1.00;;;;;;;19.32;42.77;101011.03;5057225;28;20033;-68
2023/12/30 08:21:10;;;;;;;0.73;0.60;;;;;;;19.32;42.62;101018.13;5059448;28;20134;-67
2023/12/30 08:23:36;;;;;;;1.27;0.52;;;;;;;19.31;42.94;101017.31;5063904;28;20411;-67
2023/12/30 08:26:01;;;;;;;1.05;0.77;;;;;;;19.32;42.90;101020.78;5056106;28;20090;-67
2023/12/30 08:28:27;;;;;;;2.03;0.95;;;;;;;19.19;42.95;101005.47;5059272;28;20632;-67
2023/12/30 08:30:54;;;;;;;1.10;0.70;;;;;;;19.30;42.85;101033.34;5060125;28;20102;-67
2023/12/30 08:33:20;;;;;;;1.27;0.82;;;;;;;19.23;42.82;101016.53;5060874;28;20079;-67
2023/12/30 08:35:48;;;;;;;3.22;1.05;;;;;;;19.31;42.87;101040.25;5059875;28;20072;-67
2023/12/30 08:38:16;;;;;;;2.67;1.35;;;;;;;19.23;42.67;101035.84;5060680;28;20530;-67
2023/12/30 08:40:42;;;;;;;2.63;0.85;;;;;;;19.33;42.79;101046.19;5057036;28;20393;-67
2023/12/30 08:43:07;;;;;;;1.95;0.80;;;;;;;19.36;42.58;101042.38;5061314;28;20072;-67
2023/12/30 08:45:33;;;;;;;1.08;0.60;;;;;;;19.39;42.56;101048.16;5060007;28;20049;-67
2023/12/30 08:47:58;;;;;;;2.90;1.27;;;;;;;19.45;42.39;101044.81;5058319;28;20044;-68
2023/12/30 08:50:24;;;;;;;5.85;1.58;;;;;;;19.54;41.40;101049.09;5057196;28;20041;-67
2023/12/30 08:52:49;;;;;;;5.45;1.05;;;;;;;19.54;42.01;101046.44;5058582;28;20041;-67
2023/12/30 08:55:15;;;;;;;3.75;1.25;;;;;;;19.53;42.21;101044.78;5055448;28;20047;-66
2023/12/30 08:57:43;;;;;;;3.95;1.30;;;;;;;19.53;42.29;101054.53;5059944;28;20032;-67
2023/12/30 09:00:09;;;;;;;2.50;1.05;;;;;;;19.48;42.23;101043.66;5060906;28;20689;-68
2023/12/30 09:02:35;;;;;;;3.47;1.40;;;;;;;19.58;42.16;101053.06;5061450;28;20101;-67
2023/12/30 09:05:02;;;;;;;2.58;1.30;;;;;;;19.59;42.20;101060.00;5059476;28;20550;-68
2023/12/30 09:07:29;;;;;;;3.83;0.90;;;;;;;19.59;42.10;101064.44;5057307;28;20448;-67
2023/12/30 09:09:56;;;;;;;2.60;1.27;;;;;;;19.63;42.08;101063.09;5057177;28;20044;-67
2023/12/30 09:12:21;;;;;;;3.53;1.45;;;;;;;19.63;42.00;101072.84;5059973;28;20380;-70
2023/12/30 09:14:47;;;;;;;2.60;0.80;;;;;;;19.61;42.08;101070.38;5061401;28;20056;-68
2023/12/30 09:17:12;;;;;;;2.53;1.35;;;;;;;19.55;42.12;101057.84;5056547;28;20036;-68
2023/12/30 09:19:38;;;;;;;2.65;1.23;;;;;;;19.63;42.08;101068.38;5057565;28;20049;-68
2023/12/30 09:22:04;;;;;;;1.95;1.25;;;;;;;19.60;42.21;101072.19;5060744;28;20059;-68
2023/12/30 09:24:29;;;;;;;2.35;1.05;;;;;;;19.60;42.14;101072.19;5056492;28;20083;-68
2023/12/30 09:26:55;;;;;;;2.10;1.13;;;;;;;19.58;42.16;101076.00;5059253;28;20123;-68
2023/12/30 09:29:20;;;;;;;5.88;1.42;;;;;;;19.58;42.09;101076.00;5059171;28;20048;-68
2023/12/30 09:31:46;;;;;;;0.65;0.65;;;;;;;19.52;42.16;101077.47;5060028;28;20040;-68
2023/12/30 09:34:11;;;;;;;4.25;1.30;;;;;;;19.53;42.41;101073.84;5053678;28;20048;-67
2023/12/30 09:36:37;;;;;;;3.47;1.40;;;;;;;19.45;42.16;101067.78;5061630;28;20044;-68
2023/12/30 09:39:04;;;;;;;4.15;1.13;;;;;;;19.47;42.07;101077.16;5057812;28;20052;-67
2023/12/30 09:41:31;;;;;;;4.43;1.33;;;;;;;19.50;42.13;101070.72;5055163;28;20032;-67
2023/12/30 09:43:59;;;;;;;2.00;1.30;;;;;;;19.49;42.17;101077.81;5059027;28;20055;-68
2023/12/30 09:46:25;;;;;;;2.97;1.15;;;;;;;19.40;41.65;101059.56;5059389;28;20108;-68
2023/12/30 09:48:52;;;;;;;2.72;1.10;;;;;;;19.49;42.14;101077.00;5057653;28;20040;-68
2023/12/30 09:51:18;;;;;;;2.60;1.30;;;;;;;19.52;41.70;101079.28;5059316;28;20116;-68
2023/12/30 09:53:44;;;;;;;3.45;1.30;;;;;;;19.43;41.90;101078.50;5056566;28;22088;-67
2023/12/30 09:56:11;;;;;;;4.30;1.42;;;;;;;19.50;42.00;101097.94;5019684;28;20046;-68
2023/12/30 09:58:40;;;;;;;2.75;1.10;;;;;;;19.37;42.03;101075.72;5016651;23;20081;-78
2023/12/30 10:01:05;;;;;;;2.38;0.95;;;;;;;19.42;41.88;101081.31;5004288;28;20042;-78
2023/12/30 10:03:31;;;;;;;3.45;1.40;;;;;;;19.45;41.89;101083.63;5004933;28;20503;-78
2023/12/30 10:06:03;;;;;;;3.17;0.95;;;;;;;19.44;41.97;101096.00;5003733;28;20038;-78
2023/12/30 10:08:30;;;;;;;1.25;0.90;;;;;;;19.27;41.82;101073.28;5018422;28;20040;-77
2023/12/30 10:10:57;;;;;;;4.72;1.27;;;;;;;19.47;41.58;101082.44;5017244;28;20048;-81
2023/12/30 10:13:26;;;;;;;2.40;1.23;;;;;;;19.60;41.66;101108.38;5005122;28;20088;-80
2023/12/30 10:15:57;;;;;;;1.88;1.00;;;;;;;19.63;41.75;101104.56;5007258;28;20060;-80
2023/12/30 10:18:24;;;;;;;4.35;1.08;;;;;;;19.48;41.82;101094.66;5028640;28;20572;-84
2023/12/30 10:20:49;;;;;;;2.17;0.88;;;;;;;19.47;41.81;101097.47;5019505;28;20136;-80
2023/12/30 10:23:15;;;;;;;2.90;1.17;;;;;;;19.50;41.79;101110.34;5033059;28;20057;-81
2023/12/30 10:25:41;;;;;;;2.78;1.10;;;;;;;19.47;41.71;101100.94;4984932;28;20065;-82
2023/12/30 10:28:07;;;;;;;2.50;1.35;;;;;;;19.47;41.66;101098.28;4998947;28;20412;-82
2023/12/30 10:30:32;;;;;;;3.30;1.30;;;;;;;19.53;41.64;101110.81;5022717;28;20038;-82
2023/12/30 10:33:12;;;;;;;2.97;1.58;;;;;;;19.48;41.67;101088.56;5021604;28;20045;-82
2023/12/30 10:35:47;;;;;;;4.10;1.42;;;;;;;19.62;41.64;101106.38;5005938;28;20034;-82
2023/12/30 10:38:13;;;;;;;2.72;1.65;;;;;;;19.53;41.55;101100.25;5020915;28;20388;-81
2023/12/30 10:40:39;;;;;;;5.65;1.63;;;;;;;19.48;41.75;101094.66;5008436;28;20094;-82
2023/12/30 10:43:06;;;;;;;2.78;1.42;;;;;;;19.58;41.69;101099.78;5018700;28;20049;-81
2023/12/30 10:45:31;;;;;;;4.32;1.20;;;;;;;19.49;41.65;101085.75;5020737;28;20132;-81
2023/12/30 10:47:59;;;;;;;1.95;0.98;;;;;;;19.40;41.55;101072.75;5016608;28;20041;-82
2023/12/30 10:50:26;;;;;;;2.97;1.20;;;;;;;19.39;41.76;101082.50;5020813;28;20417;-82
2023/12/30 10:53:12;;;;;;;2.90;1.15;;;;;;;19.49;41.64;101095.47;5010931;28;20336;-82
2023/12/30 10:55:44;;;;;;;4.10;1.30;;;;;;;19.59;41.69;101120.75;5015913;28;20046;-82
2023/12/30 10:58:18;;;;;;;6.07;1.58;;;;;;;19.50;41.88;101110.34;5022470;28;20049;-83
2023/12/30 11:00:57;;;;;;;3.55;1.38;;;;;;;19.53;41.45;101123.19;5005423;28;20041;-82
2023/12/30 11:03:24;;;;;;;3.08;1.13;;;;;;;19.45;41.74;101115.31;5019663;28;20037;-82
2023/12/30 11:06:01;;;;;;;2.38;1.08;;;;;;;19.54;41.61;101123.06;5018621;28;20416;-82
2023/12/30 11:08:27;;;;;;;2.75;1.30;;;;;;;19.38;41.75;101103.75;5019959;28;20037;-82
2023/12/30 11:10:54;;;;;;;3.60;1.20;;;;;;;19.23;41.70;101088.66;5022194;28;20037;-82
2023/12/30 11:13:20;;;;;;;2.75;1.42;;;;;;;19.40;41.38;101096.53;5003109;28;20109;-82
2023/12/30 11:15:45;;;;;;;5.45;1.40;;;;;;;19.42;41.52;101095.34;5020003;28;20088;-82
2023/12/30 11:18:14;;;;;;;3.65;1.83;;;;;;;19.43;41.63;101102.28;5036870;28;20078;-82